Terminal Aerodrome Forecast
Issued by NWS Northern Indiana

Home | Current Version | Previous Version | Text Only | Print | Product List | Glossary On
Versions: 1 2 3 4 5 6 7 8 9 10 11 12 13 14 15 16
000
FTUS43 KIWX 300500
TAFFWA
TAF
KFWA 300520Z 3006/3106 16008KT P6SM SCT050 BKN250
     FM301400 22015G22KT P6SM SCT040 BKN100
     FM302000 22017G23KT P6SM VCTS BKN040CB PROB30 3020/3024 4SM
      -TSRA BKN030CB
     FM310200 21009KT 6SM BR BKN035=

USA.gov is the U.S. government's official web portal to all federal, state and local government web resources and services.